sensor_id;sensor_type;location;lat;lon;timestamp;pressure;altitude;pressure_sealevel;temperature;humidity
34185;BME280;20454;48.100;11.776;2023-02-12T00:02:16;97244.66;;;2.92;77.84
34185;BME280;20454;48.100;11.776;2023-02-12T00:04:43;97240.00;;;2.93;77.64
34185;BME280;20454;48.100;11.776;2023-02-12T00:07:09;97230.91;;;2.92;77.71
34185;BME280;20454;48.100;11.776;2023-02-12T00:09:35;97232.97;;;2.97;76.82
34185;BME280;20454;48.100;11.776;2023-02-12T00:12:01;97229.41;;;2.96;76.51
34185;BME280;20454;48.100;11.776;2023-02-12T00:14:27;97230.22;;;2.97;76.56
34185;BME280;20454;48.100;11.776;2023-02-12T00:16:52;97234.41;;;2.99;76.67
34185;BME280;20454;48.100;11.776;2023-02-12T00:19:18;97233.97;;;3.02;76.46
34185;BME280;20454;48.100;11.776;2023-02-12T00:21:43;97224.41;;;3.05;76.04
34185;BME280;20454;48.100;11.776;2023-02-12T00:24:09;97217.00;;;3.05;76.26
34185;BME280;20454;48.100;11.776;2023-02-12T00:26:35;97230.50;;;3.07;76.44
34185;BME280;20454;48.100;11.776;2023-02-12T00:29:01;97231.59;;;3.06;76.80
34185;BME280;20454;48.100;11.776;2023-02-12T00:31:28;97229.91;;;3.05;76.85
34185;BME280;20454;48.100;11.776;2023-02-12T00:33:54;97238.59;;;3.02;76.72
34185;BME280;20454;48.100;11.776;2023-02-12T00:36:23;97238.59;;;3.02;76.96
34185;BME280;20454;48.100;11.776;2023-02-12T00:38:51;97223.41;;;2.99;77.22
34185;BME280;20454;48.100;11.776;2023-02-12T00:41:17;97218.56;;;3.01;77.49
34185;BME280;20454;48.100;11.776;2023-02-12T00:43:43;97213.88;;;3.02;77.77
34185;BME280;20454;48.100;11.776;2023-02-12T00:46:09;97229.91;;;3.05;77.82
34185;BME280;20454;48.100;11.776;2023-02-12T00:48:35;97222.50;;;3.05;77.98
34185;BME280;20454;48.100;11.776;2023-02-12T00:51:02;97224.16;;;3.06;77.99
34185;BME280;20454;48.100;11.776;2023-02-12T00:53:28;97228.59;;;3.07;78.35
34185;BME280;20454;48.100;11.776;2023-02-12T00:55:54;97239.94;;;3.11;78.20
34185;BME280;20454;48.100;11.776;2023-02-12T00:58:19;97240.22;;;3.09;78.41
34185;BME280;20454;48.100;11.776;2023-02-12T01:00:45;97246.31;;;3.11;78.38
34185;BME280;20454;48.100;11.776;2023-02-12T01:03:11;97248.69;;;3.08;78.61
34185;BME280;20454;48.100;11.776;2023-02-12T01:05:37;97250.94;;;3.11;78.90
34185;BME280;20454;48.100;11.776;2023-02-12T01:08:03;97236.00;;;3.07;79.08
34185;BME280;20454;48.100;11.776;2023-02-12T01:10:29;97238.97;;;3.05;78.97
34185;BME280;20454;48.100;11.776;2023-02-12T01:12:55;97236.47;;;3.04;79.13
34185;BME280;20454;48.100;11.776;2023-02-12T01:15:21;97235.88;;;3.02;79.37
34185;BME280;20454;48.100;11.776;2023-02-12T01:17:50;97237.31;;;3.04;79.51
34185;BME280;20454;48.100;11.776;2023-02-12T01:20:17;97235.50;;;2.98;79.74
34185;BME280;20454;48.100;11.776;2023-02-12T01:22:44;97241.84;;;2.99;79.65
34185;BME280;20454;48.100;11.776;2023-02-12T01:25:09;97243.13;;;2.96;79.97
34185;BME280;20454;48.100;11.776;2023-02-12T01:27:35;97246.09;;;2.95;80.33
34185;BME280;20454;48.100;11.776;2023-02-12T01:30:01;97241.84;;;2.99;80.38
34185;BME280;20454;48.100;11.776;2023-02-12T01:32:27;97247.34;;;2.99;80.57
34185;BME280;20454;48.100;11.776;2023-02-12T01:34:52;97249.47;;;2.97;80.70
34185;BME280;20454;48.100;11.776;2023-02-12T01:37:18;97246.47;;;2.98;80.74
34185;BME280;20454;48.100;11.776;2023-02-12T01:39:44;97245.66;;;2.98;80.78
34185;BME280;20454;48.100;11.776;2023-02-12T01:42:13;97246.09;;;2.95;81.09
34185;BME280;20454;48.100;11.776;2023-02-12T01:47:37;97243.84;;;2.92;81.06
34185;BME280;20454;48.100;11.776;2023-02-12T01:50:03;97240.22;;;2.91;81.33
34185;BME280;20454;48.100;11.776;2023-02-12T01:52:30;97245.97;;;2.90;81.47
34185;BME280;20454;48.100;11.776;2023-02-12T01:54:58;97249.78;;;2.89;81.39
34185;BME280;20454;48.100;11.776;2023-02-12T01:57:26;97249.56;;;2.90;81.56
34185;BME280;20454;48.100;11.776;2023-02-12T01:59:53;97238.78;;;2.89;81.45
34185;BME280;20454;48.100;11.776;2023-02-12T02:02:20;97224.22;;;2.88;81.29
34185;BME280;20454;48.100;11.776;2023-02-12T02:04:49;97230.31;;;2.90;81.31
34185;BME280;20454;48.100;11.776;2023-02-12T02:07:16;97226.97;;;2.88;80.77
34185;BME280;20454;48.100;11.776;2023-02-12T02:09:42;97230.78;;;2.87;80.79
34185;BME280;20454;48.100;11.776;2023-02-12T02:12:08;97232.69;;;2.87;80.92
34185;BME280;20454;48.100;11.776;2023-02-12T02:14:55;97234.59;;;2.86;80.70
34185;BME280;20454;48.100;11.776;2023-02-12T02:31:41;97234.59;;;2.86;81.20
34185;BME280;20454;48.100;11.776;2023-02-12T02:36:44;97239.25;;;2.86;81.81
34185;BME280;20454;48.100;11.776;2023-02-12T02:39:19;97224.66;;;2.85;81.23
34185;BME280;20454;48.100;11.776;2023-02-12T02:41:58;97223.59;;;2.86;81.23
34185;BME280;20454;48.100;11.776;2023-02-12T02:44:38;97214.38;;;2.81;81.03
34185;BME280;20454;48.100;11.776;2023-02-12T02:47:08;97213.69;;;2.85;80.90
34185;BME280;20454;48.100;11.776;2023-02-12T02:49:56;97215.34;;;2.86;80.82
34185;BME280;20454;48.100;11.776;2023-02-12T02:52:34;97203.53;;;2.86;81.03
34185;BME280;20454;48.100;11.776;2023-02-12T02:55:05;97207.09;;;2.86;81.08
34185;BME280;20454;48.100;11.776;2023-02-12T07:30:56;97346.50;;;3.45;86.77
34185;BME280;20454;48.100;11.776;2023-02-12T07:33:22;97338.41;;;3.50;87.14
34185;BME280;20454;48.100;11.776;2023-02-12T07:35:48;97340.84;;;3.58;87.51
34185;BME280;20454;48.100;11.776;2023-02-12T07:38:13;97337.16;;;3.64;87.67
34185;BME280;20454;48.100;11.776;2023-02-12T07:40:39;97342.31;;;3.72;87.41
34185;BME280;20454;48.100;11.776;2023-02-12T07:43:05;97334.19;;;3.77;87.69
34185;BME280;20454;48.100;11.776;2023-02-12T07:45:30;97341.03;;;3.86;87.57
34185;BME280;20454;48.100;11.776;2023-02-12T07:47:56;97343.44;;;3.94;86.98
34185;BME280;20454;48.100;11.776;2023-02-12T07:50:22;97340.63;;;4.00;86.88
34185;BME280;20454;48.100;11.776;2023-02-12T07:52:48;97338.00;;;4.05;86.40
34185;BME280;20454;48.100;11.776;2023-02-12T07:55:15;97337.88;;;4.12;85.95
34185;BME280;20454;48.100;11.776;2023-02-12T07:57:41;97329.75;;;4.17;85.23
34185;BME280;20454;48.100;11.776;2023-02-12T09:10:05;97315.97;;;6.09;85.60
34185;BME280;20454;48.100;11.776;2023-02-12T09:12:31;97330.66;;;6.26;84.94
34185;BME280;20454;48.100;11.776;2023-02-12T09:14:56;97330.66;;;6.42;84.26
34185;BME280;20454;48.100;11.776;2023-02-12T09:17:22;97338.13;;;6.58;83.37
34185;BME280;20454;48.100;11.776;2023-02-12T09:19:52;97342.69;;;6.69;82.63
34185;BME280;20454;48.100;11.776;2023-02-12T09:22:18;97339.59;;;6.82;82.46
34185;BME280;20454;48.100;11.776;2023-02-12T09:24:44;97328.69;;;6.92;82.54
34185;BME280;20454;48.100;11.776;2023-02-12T09:27:09;97340.22;;;7.06;81.50
34185;BME280;20454;48.100;11.776;2023-02-12T09:29:35;97337.66;;;7.21;81.22
34185;BME280;20454;48.100;11.776;2023-02-12T09:32:01;97331.16;;;7.32;81.00
34185;BME280;20454;48.100;11.776;2023-02-12T09:34:29;97331.56;;;7.40;80.21
34185;BME280;20454;48.100;11.776;2023-02-12T09:36:58;97333.28;;;7.46;80.26
34185;BME280;20454;48.100;11.776;2023-02-12T11:03:51;97320.41;;;10.82;62.34
34185;BME280;20454;48.100;11.776;2023-02-12T11:06:27;97317.91;;;10.70;63.26
34185;BME280;20454;48.100;11.776;2023-02-12T11:08:54;97311.53;;;10.65;63.63
34185;BME280;20454;48.100;11.776;2023-02-12T11:14:05;97312.91;;;10.62;63.94
34185;BME280;20454;48.100;11.776;2023-02-12T11:16:35;97309.28;;;10.62;63.47
34185;BME280;20454;48.100;11.776;2023-02-12T11:19:06;97314.28;;;10.55;64.40
34185;BME280;20454;48.100;11.776;2023-02-12T11:21:33;97310.38;;;10.56;64.19
34185;BME280;20454;48.100;11.776;2023-02-12T11:24:31;97308.44;;;10.51;63.93
34185;BME280;20454;48.100;11.776;2023-02-12T11:29:42;97300.06;;;10.31;64.88
34185;BME280;20454;48.100;11.776;2023-02-12T11:32:16;97298.16;;;10.37;64.74
34185;BME280;20454;48.100;11.776;2023-02-12T11:34:42;97300.06;;;10.31;64.65
34185;BME280;20454;48.100;11.776;2023-02-12T11:37:22;97296.75;;;10.34;64.56
34185;BME280;20454;48.100;11.776;2023-02-12T11:39:49;97303.69;;;10.57;64.20
34185;BME280;20454;48.100;11.776;2023-02-12T11:42:19;97299.25;;;10.71;63.60
34185;BME280;20454;48.100;11.776;2023-02-12T11:44:53;97294.53;;;10.76;62.88
34185;BME280;20454;48.100;11.776;2023-02-12T11:47:24;97290.59;;;10.97;62.52
34185;BME280;20454;48.100;11.776;2023-02-12T11:49:58;97295.59;;;11.10;61.05
34185;BME280;20454;48.100;11.776;2023-02-12T11:52:30;97280.28;;;11.13;61.21
34185;BME280;20454;48.100;11.776;2023-02-12T11:55:28;97281.66;;;11.05;60.72
34185;BME280;20454;48.100;11.776;2023-02-12T11:58:20;97283.59;;;11.05;60.69
34185;BME280;20454;48.100;11.776;2023-02-12T12:03:51;97276.56;;;11.37;60.48
34185;BME280;20454;48.100;11.776;2023-02-12T12:09:48;97271.75;;;12.50;57.95
34185;BME280;20454;48.100;11.776;2023-02-12T12:13:01;97250.09;;;13.27;54.33
34185;BME280;20454;48.100;11.776;2023-02-12T12:15:37;97248.50;;;13.68;52.54
34185;BME280;20454;48.100;11.776;2023-02-12T12:18:57;97236.81;;;14.03;52.80
34185;BME280;20454;48.100;11.776;2023-02-12T12:22:12;97240.47;;;14.41;50.68
34185;BME280;20454;48.100;11.776;2023-02-12T12:25:03;97243.75;;;14.80;50.01
34185;BME280;20454;48.100;11.776;2023-02-12T14:43:34;97213.25;;;12.35;57.13
34185;BME280;20454;48.100;11.776;2023-02-12T14:46:52;97209.38;;;11.97;58.29
34185;BME280;20454;48.100;11.776;2023-02-12T14:49:44;97216.00;;;11.53;59.82
34185;BME280;20454;48.100;11.776;2023-02-12T14:54:55;97226.59;;;10.77;62.64
34185;BME280;20454;48.100;11.776;2023-02-12T14:57:39;97229.97;;;10.49;63.42
34185;BME280;20454;48.100;11.776;2023-02-12T15:06:06;97227.03;;;9.54;66.73
34185;BME280;20454;48.100;11.776;2023-02-12T15:16:53;97234.22;;;8.79;70.37
34185;BME280;20454;48.100;11.776;2023-02-12T15:19:39;97235.22;;;8.63;71.17
34185;BME280;20454;48.100;11.776;2023-02-12T15:22:28;97231.22;;;8.49;72.31
34185;BME280;20454;48.100;11.776;2023-02-12T15:25:27;97235.56;;;8.35;72.52
34185;BME280;20454;48.100;11.776;2023-02-12T15:28:01;97222.75;;;8.29;72.49
34185;BME280;20454;48.100;11.776;2023-02-12T15:30:32;97224.81;;;8.12;72.65
34185;BME280;20454;48.100;11.776;2023-02-12T15:33:04;97224.16;;;8.00;73.02
34185;BME280;20454;48.100;11.776;2023-02-12T15:35:34;97223.22;;;7.90;73.49
34185;BME280;20454;48.100;11.776;2023-02-12T15:38:01;97220.44;;;7.85;73.98
34185;BME280;20454;48.100;11.776;2023-02-12T15:40:30;97221.19;;;7.80;73.81
34185;BME280;20454;48.100;11.776;2023-02-12T15:43:04;97214.28;;;7.78;74.30
34185;BME280;20454;48.100;11.776;2023-02-12T15:45:35;97204.31;;;7.82;74.62
34185;BME280;20454;48.100;11.776;2023-02-12T15:48:21;97214.59;;;7.81;74.25
34185;BME280;20454;48.100;11.776;2023-02-12T15:53:19;97213.59;;;7.66;74.63
34185;BME280;20454;48.100;11.776;2023-02-12T15:55:47;97216.78;;;7.53;74.80
34185;BME280;20454;48.100;11.776;2023-02-12T15:58:26;97222.47;;;7.41;75.12
34185;BME280;20454;48.100;11.776;2023-02-12T16:00:55;97217.91;;;7.30;75.88
34185;BME280;20454;48.100;11.776;2023-02-12T16:08:36;97226.13;;;6.99;77.09
34185;BME280;20454;48.100;11.776;2023-02-12T16:11:04;97221.25;;;6.84;77.45
34185;BME280;20454;48.100;11.776;2023-02-12T16:13:54;97220.84;;;6.76;78.22
34185;BME280;20454;48.100;11.776;2023-02-12T16:16:37;97217.69;;;6.67;78.39
34185;BME280;20454;48.100;11.776;2023-02-12T16:19:23;97235.28;;;6.61;78.98
34185;BME280;20454;48.100;11.776;2023-02-12T16:22:15;97229.88;;;6.50;79.36
34185;BME280;20454;48.100;11.776;2023-02-12T16:24:48;97212.50;;;6.33;79.97
34185;BME280;20454;48.100;11.776;2023-02-12T16:29:49;97238.81;;;6.19;81.23
34185;BME280;20454;48.100;11.776;2023-02-12T16:37:49;97240.16;;;6.00;82.38
34185;BME280;20454;48.100;11.776;2023-02-12T16:50:50;97254.06;;;5.60;85.28
34185;BME280;20454;48.100;11.776;2023-02-12T16:53:37;97254.34;;;5.47;85.33
34185;BME280;20454;48.100;11.776;2023-02-12T16:56:13;97253.06;;;5.38;85.91
34185;BME280;20454;48.100;11.776;2023-02-12T16:58:41;97257.66;;;5.33;86.19
34185;BME280;20454;48.100;11.776;2023-02-12T17:01:07;97246.91;;;5.20;86.42
34185;BME280;20454;48.100;11.776;2023-02-12T17:03:34;97259.19;;;5.12;87.41
34185;BME280;20454;48.100;11.776;2023-02-12T17:06:00;97251.53;;;5.03;87.39
34185;BME280;20454;48.100;11.776;2023-02-12T17:08:25;97255.28;;;4.97;87.89
34185;BME280;20454;48.100;11.776;2023-02-12T17:10:51;97250.63;;;4.86;88.29
34185;BME280;20454;48.100;11.776;2023-02-12T17:13:18;97239.97;;;4.78;89.06
34185;BME280;20454;48.100;11.776;2023-02-12T17:15:57;97253.16;;;4.76;88.99
34185;BME280;20454;48.100;11.776;2023-02-12T17:18:24;97249.72;;;4.69;89.78
34185;BME280;20454;48.100;11.776;2023-02-12T17:20:59;97243.50;;;4.62;90.71
34185;BME280;20454;48.100;11.776;2023-02-12T17:23:26;97237.28;;;4.55;91.29
34185;BME280;20454;48.100;11.776;2023-02-12T17:25:52;97239.09;;;4.50;91.21
34185;BME280;20454;48.100;11.776;2023-02-12T17:28:18;97237.03;;;4.45;91.53
34185;BME280;20454;48.100;11.776;2023-02-12T17:30:44;97248.06;;;4.45;91.85
34185;BME280;20454;48.100;11.776;2023-02-12T17:33:10;97236.31;;;4.38;92.21
34185;BME280;20454;48.100;11.776;2023-02-12T17:35:37;97242.56;;;4.34;92.44
34185;BME280;20454;48.100;11.776;2023-02-12T17:38:04;97254.19;;;4.36;92.70
34185;BME280;20454;48.100;11.776;2023-02-12T17:40:30;97259.09;;;4.34;93.16
34185;BME280;20454;48.100;11.776;2023-02-12T17:42:55;97251.19;;;4.26;94.05
34185;BME280;20454;48.100;11.776;2023-02-12T17:45:22;97258.59;;;4.25;94.31
34185;BME280;20454;48.100;11.776;2023-02-12T17:47:48;97266.03;;;4.25;94.88
34185;BME280;20454;48.100;11.776;2023-02-12T17:50:15;97261.72;;;4.17;94.87
34185;BME280;20454;48.100;11.776;2023-02-12T17:52:42;97260.03;;;4.16;95.38
34185;BME280;20454;48.100;11.776;2023-02-12T17:55:08;97252.28;;;4.13;95.63
34185;BME280;20454;48.100;11.776;2023-02-12T17:57:36;97265.19;;;4.13;95.93
34185;BME280;20454;48.100;11.776;2023-02-12T18:00:05;97267.94;;;4.13;95.99
34185;BME280;20454;48.100;11.776;2023-02-12T18:02:31;97274.53;;;4.12;96.46
34185;BME280;20454;48.100;11.776;2023-02-12T18:04:56;97271.78;;;4.12;97.14
34185;BME280;20454;48.100;11.776;2023-02-12T18:07:22;97261.25;;;4.09;97.70
34185;BME280;20454;48.100;11.776;2023-02-12T18:09:48;97251.41;;;4.01;97.69
34185;BME280;20454;48.100;11.776;2023-02-12T18:12:14;97262.66;;;4.00;97.65
34185;BME280;20454;48.100;11.776;2023-02-12T18:14:40;97266.63;;;3.92;97.96
34185;BME280;20454;48.100;11.776;2023-02-12T20:08:32;97261.63;;;1.75;100.00
34185;BME280;20454;48.100;11.776;2023-02-12T20:10:57;97266.72;;;1.71;100.00
34185;BME280;20454;48.100;11.776;2023-02-12T20:13:23;97266.50;;;1.73;100.00
34185;BME280;20454;48.100;11.776;2023-02-12T20:15:49;97276.41;;;1.74;100.00
34185;BME280;20454;48.100;11.776;2023-02-12T20:18:14;97271.34;;;1.71;100.00
34185;BME280;20454;48.100;11.776;2023-02-12T20:20:40;97267.78;;;1.70;100.00
34185;BME280;20454;48.100;11.776;2023-02-12T20:23:06;97269.66;;;1.70;100.00
34185;BME280;20454;48.100;11.776;2023-02-12T20:25:31;97266.94;;;1.70;100.00
34185;BME280;20454;48.100;11.776;2023-02-12T20:27:57;97277.22;;;1.74;100.00
34185;BME280;20454;48.100;11.776;2023-02-12T20:30:23;97276.16;;;1.75;100.00
34185;BME280;20454;48.100;11.776;2023-02-12T20:32:49;97276.53;;;1.79;100.00
34185;BME280;20454;48.100;11.776;2023-02-12T20:35:15;97261.16;;;1.78;100.00
34185;BME280;20454;48.100;11.776;2023-02-12T20:37:43;97264.94;;;1.83;100.00
34185;BME280;20454;48.100;11.776;2023-02-12T20:40:10;97270.16;;;1.85;100.00
34185;BME280;20454;48.100;11.776;2023-02-12T20:42:35;97267.81;;;1.88;100.00
34185;BME280;20454;48.100;11.776;2023-02-12T20:45:03;97273.69;;;1.92;100.00
34185;BME280;20454;48.100;11.776;2023-02-12T20:47:29;97274.94;;;1.96;100.00
34185;BME280;20454;48.100;11.776;2023-02-12T20:49:55;97273.41;;;2.00;100.00
34185;BME280;20454;48.100;11.776;2023-02-12T20:52:21;97277.16;;;2.05;100.00
34185;BME280;20454;48.100;11.776;2023-02-12T20:54:47;97281.50;;;2.13;100.00
34185;BME280;20454;48.100;11.776;2023-02-12T20:57:13;97276.19;;;2.18;100.00
34185;BME280;20454;48.100;11.776;2023-02-12T20:59:39;97290.91;;;2.23;100.00
34185;BME280;20454;48.100;11.776;2023-02-12T21:02:05;97280.94;;;2.29;100.00
34185;BME280;20454;48.100;11.776;2023-02-12T21:04:31;97289.78;;;2.31;100.00
34185;BME280;20454;48.100;11.776;2023-02-12T21:06:56;97280.25;;;2.33;100.00
34185;BME280;20454;48.100;11.776;2023-02-12T21:09:22;97274.53;;;2.35;100.00
34185;BME280;20454;48.100;11.776;2023-02-12T21:11:48;97274.53;;;2.35;100.00
34185;BME280;20454;48.100;11.776;2023-02-12T21:14:14;97276.22;;;2.36;100.00
34185;BME280;20454;48.100;11.776;2023-02-12T21:16:40;97275.16;;;2.37;100.00
34185;BME280;20454;48.100;11.776;2023-02-12T21:19:07;97273.88;;;2.39;100.00
34185;BME280;20454;48.100;11.776;2023-02-12T21:21:35;97271.13;;;2.39;100.00
34185;BME280;20454;48.100;11.776;2023-02-12T21:24:03;97274.47;;;2.41;100.00
34185;BME280;20454;48.100;11.776;2023-02-12T21:26:30;97267.03;;;2.42;100.00
34185;BME280;20454;48.100;11.776;2023-02-12T21:28:57;97271.50;;;2.43;100.00
34185;BME280;20454;48.100;11.776;2023-02-12T21:33:53;97267.69;;;2.44;100.00
34185;BME280;20454;48.100;11.776;2023-02-12T21:36:29;97270.66;;;2.42;100.00
34185;BME280;20454;48.100;11.776;2023-02-12T21:38:56;97276.75;;;2.44;100.00
34185;BME280;20454;48.100;11.776;2023-02-12T21:41:29;97285.84;;;2.45;100.00
34185;BME280;20454;48.100;11.776;2023-02-12T21:43:58;97288.34;;;2.46;100.00
34185;BME280;20454;48.100;11.776;2023-02-12T21:46:24;97284.75;;;2.46;100.00
34185;BME280;20454;48.100;11.776;2023-02-12T21:48:50;97286.91;;;2.44;100.00
34185;BME280;20454;48.100;11.776;2023-02-12T21:51:23;97292.41;;;2.44;100.00
34185;BME280;20454;48.100;11.776;2023-02-12T21:53:51;97294.69;;;2.47;100.00
34185;BME280;20454;48.100;11.776;2023-02-12T21:56:17;97304.19;;;2.44;100.00
34185;BME280;20454;48.100;11.776;2023-02-12T21:58:43;97299.78;;;2.43;100.00
34185;BME280;20454;48.100;11.776;2023-02-12T22:01:11;97308.88;;;2.44;100.00
34185;BME280;20454;48.100;11.776;2023-02-12T22:03:38;97295.75;;;2.46;100.00
34185;BME280;20454;48.100;11.776;2023-02-12T22:06:06;97300.38;;;2.45;100.00
34185;BME280;20454;48.100;11.776;2023-02-12T22:08:33;97299.78;;;2.43;100.00
34185;BME280;20454;48.100;11.776;2023-02-12T22:11:07;97295.16;;;2.44;100.00
34185;BME280;20454;48.100;11.776;2023-02-12T22:13:33;97303.13;;;2.45;100.00
34185;BME280;20454;48.100;11.776;2023-02-12T22:16:15;97307.41;;;2.41;100.00
34185;BME280;20454;48.100;11.776;2023-02-12T22:18:42;97300.25;;;2.40;100.00
34185;BME280;20454;48.100;11.776;2023-02-12T22:21:10;97308.25;;;2.42;100.00
34185;BME280;20454;48.100;11.776;2023-02-12T22:23:36;97296.03;;;2.38;100.00
34185;BME280;20454;48.100;11.776;2023-02-12T22:26:16;97302.63;;;2.37;100.00
34185;BME280;20454;48.100;11.776;2023-02-12T22:28:50;97301.75;;;2.36;100.00
34185;BME280;20454;48.100;11.776;2023-02-12T22:31:18;97302.22;;;2.33;100.00
34185;BME280;20454;48.100;11.776;2023-02-12T22:33:45;97301.84;;;2.30;100.00
34185;BME280;20454;48.100;11.776;2023-02-12T22:36:11;97300.16;;;2.29;100.00
34185;BME280;20454;48.100;11.776;2023-02-12T22:38:37;97296.34;;;2.30;100.00
34185;BME280;20454;48.100;11.776;2023-02-12T22:41:04;97306.47;;;2.29;100.00
34185;BME280;20454;48.100;11.776;2023-02-12T22:43:31;97306.47;;;2.29;100.00
34185;BME280;20454;48.100;11.776;2023-02-12T22:45:57;97306.25;;;2.31;100.00
34185;BME280;20454;48.100;11.776;2023-02-12T22:48:23;97305.66;;;2.29;100.00
34185;BME280;20454;48.100;11.776;2023-02-12T22:50:49;97306.47;;;2.29;100.00
34185;BME280;20454;48.100;11.776;2023-02-12T22:53:15;97300.38;;;2.27;100.00
34185;BME280;20454;48.100;11.776;2023-02-12T22:55:41;97302.91;;;2.29;100.00
34185;BME280;20454;48.100;11.776;2023-02-12T22:58:06;97305.66;;;2.29;100.00
34185;BME280;20454;48.100;11.776;2023-02-12T23:00:32;97295.50;;;2.29;100.00
34185;BME280;20454;48.100;11.776;2023-02-12T23:02:58;97292.97;;;2.28;100.00
34185;BME280;20454;48.100;11.776;2023-02-12T23:05:24;97295.72;;;2.28;100.00
34185;BME280;20454;48.100;11.776;2023-02-12T23:07:49;97291.69;;;2.30;100.00
34185;BME280;20454;48.100;11.776;2023-02-12T23:10:15;97284.72;;;2.28;100.00
34185;BME280;20454;48.100;11.776;2023-02-12T23:12:41;97283.06;;;2.27;100.00
34185;BME280;20454;48.100;11.776;2023-02-12T23:15:06;97283.91;;;2.27;100.00
34185;BME280;20454;48.100;11.776;2023-02-12T23:17:32;97281.59;;;2.24;100.00
34185;BME280;20454;48.100;11.776;2023-02-12T23:19:58;97285.81;;;2.27;100.00
34185;BME280;20454;48.100;11.776;2023-02-12T23:22:23;97282.25;;;2.26;100.00
34185;BME280;20454;48.100;11.776;2023-02-12T23:24:49;97287.97;;;2.43;100.00
34185;BME280;20454;48.100;11.776;2023-02-12T23:27:15;97287.66;;;2.33;100.00
34185;BME280;20454;48.100;11.776;2023-02-12T23:29:40;97288.94;;;2.30;100.00
34185;BME280;20454;48.100;11.776;2023-02-12T23:32:06;97282.84;;;2.28;100.00
34185;BME280;20454;48.100;11.776;2023-02-12T23:34:32;97283.69;;;2.29;100.00
34185;BME280;20454;48.100;11.776;2023-02-12T23:36:57;97288.13;;;2.30;100.00
34185;BME280;20454;48.100;11.776;2023-02-12T23:39:23;97283.00;;;2.33;100.00
34185;BME280;20454;48.100;11.776;2023-02-12T23:41:49;97277.66;;;2.38;100.00
34185;BME280;20454;48.100;11.776;2023-02-12T23:44:14;97282.16;;;2.33;100.00
34185;BME280;20454;48.100;11.776;2023-02-12T23:46:40;97288.13;;;2.30;100.00
34185;BME280;20454;48.100;11.776;2023-02-12T23:49:06;97278.41;;;2.27;100.00
34185;BME280;20454;48.100;11.776;2023-02-12T23:51:32;97287.03;;;2.31;100.00
34185;BME280;20454;48.100;11.776;2023-02-12T23:53:57;97285.97;;;2.32;100.00
34185;BME280;20454;48.100;11.776;2023-02-12T23:56:23;97284.28;;;2.31;100.00
34185;BME280;20454;48.100;11.776;2023-02-12T23:58:49;97277.72;;;2.32;100.00
